createdAt,value
2019-04-13T01:20:12.471Z,97110.41
2019-04-13T01:25:09.142Z,97110.90
2019-04-13T01:30:07.553Z,97111.84
2019-04-13T01:35:08.837Z,97124.23
2019-04-13T01:40:07.165Z,97120.23
2019-04-13T01:45:03.162Z,97114.41
2019-04-13T01:50:10.253Z,97106.97
2019-04-13T01:55:05.068Z,97111.59
2019-04-13T02:00:01.012Z,97104.15
2019-04-13T02:05:18.266Z,97099.13
2019-04-13T02:10:20.828Z,97097.83
2019-04-13T02:15:22.399Z,97095.53
2019-04-13T02:20:26.058Z,97097.97
2019-04-13T02:25:27.778Z,97105.55
2019-04-13T02:30:24.094Z,97095.03
2019-04-13T02:35:34.479Z,97092.53
2019-04-13T02:40:17.672Z,97093.40
2019-04-13T02:45:13.653Z,97089.45
2019-04-13T02:50:10.524Z,97097.11
2019-04-13T02:55:06.829Z,97093.15
2019-04-13T03:00:19.252Z,97084.50
2019-04-13T03:05:46.499Z,97092.99
2019-04-13T03:10:41.498Z,97085.53
2019-04-13T03:16:06.598Z,97083.52
2019-04-13T03:21:02.724Z,97082.92
2019-04-13T03:25:58.532Z,97085.84
2019-04-13T03:30:56.138Z,97080.23
2019-04-13T03:35:59.127Z,97076.70
2019-04-13T03:40:49.381Z,97083.58
2019-04-13T03:45:45.155Z,97084.75
2019-04-13T03:50:40.911Z,97080.38
2019-04-13T03:55:36.702Z,97080.48
2019-04-13T04:00:32.975Z,97076.91
2019-04-13T04:05:28.849Z,97072.17
2019-04-13T04:10:24.665Z,97076.16
2019-04-13T04:15:20.470Z,97066.46
2019-04-13T04:20:16.471Z,97074.06
2019-04-13T04:25:12.327Z,97066.34
2019-04-13T04:30:08.916Z,97068.48
2019-04-13T04:35:05.205Z,97066.87
2019-04-13T04:40:01.052Z,97066.59
2019-04-13T04:44:56.951Z,97063.16
2019-04-13T04:49:52.823Z,97057.36
2019-04-13T04:54:48.721Z,97066.00
2019-04-13T04:59:44.663Z,97068.77
2019-04-13T05:04:40.727Z,97066.16
2019-04-13T05:09:38.203Z,97070.03
2019-04-13T05:14:34.023Z,97070.84
2019-04-13T05:19:29.907Z,97066.58
2019-04-13T05:24:25.833Z,97068.52
2019-04-13T05:29:21.812Z,97071.52
2019-04-13T05:34:17.679Z,97070.69
2019-04-13T05:39:13.576Z,97072.77
2019-04-13T05:44:09.331Z,97080.94
2019-04-13T05:49:05.182Z,97076.11
2019-04-13T05:54:00.954Z,97081.49
2019-04-13T05:59:02.963Z,97090.69
2019-04-13T06:03:54.246Z,97092.73
2019-04-13T06:08:50.142Z,97088.98
2019-04-13T06:13:45.888Z,97090.98
2019-04-13T06:18:41.714Z,97087.42
2019-04-13T06:23:37.486Z,97081.28
2019-04-13T06:28:33.286Z,97085.40
2019-04-13T06:33:43.718Z,97083.66
2019-04-13T06:38:39.643Z,97090.70
2019-04-13T06:44:04.993Z,97090.23
2019-04-13T06:49:00.832Z,97096.98
2019-04-13T06:53:56.664Z,97092.30
2019-04-13T06:58:52.506Z,97095.06
2019-04-13T07:03:48.412Z,97091.59
2019-04-13T07:09:03.066Z,97094.56
2019-04-13T07:14:01.386Z,97089.92
2019-04-13T07:19:42.926Z,97092.20
2019-04-13T07:25:39.978Z,97098.09
2019-04-13T07:31:06.339Z,97101.94
2019-04-13T07:36:02.233Z,97103.77
2019-04-13T07:41:16.762Z,97102.66
2019-04-13T07:46:52.960Z,97105.69
2019-04-13T07:52:49.097Z,97115.55
2019-04-13T07:58:28.741Z,97118.18
2019-04-13T08:03:33.016Z,97116.85
2019-04-13T08:08:55.141Z,97113.83
2019-04-13T08:14:25.667Z,97110.91
2019-04-13T08:20:36.953Z,97109.98
2019-04-13T08:26:12.310Z,97114.14
2019-04-13T08:31:41.464Z,97106.54
2019-04-13T08:36:37.617Z,97113.22
2019-04-13T08:41:44.482Z,97103.03
2019-04-13T08:46:37.932Z,97100.29
2019-04-13T08:51:33.768Z,97100.35
2019-04-13T08:56:31.354Z,97099.00
2019-04-13T09:01:31.866Z,97089.73
2019-04-13T09:06:30.289Z,97083.23
2019-04-13T09:12:26.728Z,97082.09
2019-04-13T09:17:24.722Z,97082.55
2019-04-13T09:22:24.395Z,97082.28
2019-04-13T09:27:25.469Z,97076.66
2019-04-13T09:32:41.688Z,97076.69
2019-04-13T09:38:13.753Z,97066.97
2019-04-13T09:43:17.579Z,97073.03
2019-04-13T09:48:26.752Z,97069.49
2019-04-13T09:54:52.472Z,97065.75
2019-04-13T09:59:10.762Z,97053.39
2019-04-13T10:04:04.099Z,97048.97
2019-04-13T10:09:08.240Z,97043.30
2019-04-13T10:14:35.861Z,97045.20
2019-04-13T10:19:55.627Z,97045.67
2019-04-13T10:24:58.149Z,97039.96
2019-04-13T10:30:06.166Z,97031.77
2019-04-13T10:35:09.851Z,97025.42
2019-04-13T10:40:14.937Z,97022.27
2019-04-13T10:45:50.575Z,97021.08
2019-04-13T10:50:52.830Z,97015.58
2019-04-13T10:55:55.298Z,97020.88
2019-04-13T11:01:03.662Z,97009.59
2019-04-13T11:06:52.549Z,97003.03
2019-04-13T11:12:01.765Z,97001.27
2019-04-13T11:17:15.793Z,97001.97
2019-04-13T11:22:28.464Z,97003.28
2019-04-13T11:32:51.211Z,97005.94
2019-04-13T11:37:56.327Z,96999.93
2019-04-13T11:43:15.290Z,97001.23
2019-04-13T11:49:04.987Z,97002.08
2019-04-13T11:54:09.156Z,97001.36
2019-04-13T11:59:17.602Z,97000.16
2019-04-13T12:04:37.707Z,96998.71
2019-04-13T12:09:58.993Z,96991.52
2019-04-13T12:15:07.194Z,96990.14
2019-04-13T12:20:19.443Z,96997.92
2019-04-13T12:25:15.306Z,96990.17
2019-04-13T12:30:20.385Z,96997.14
2019-04-13T12:35:16.382Z,96998.09
2019-04-13T12:40:27.006Z,96989.20
2019-04-13T12:45:26.103Z,97003.52
2019-04-13T12:50:30.394Z,97000.06
2019-04-13T12:55:29.970Z,96999.92
2019-04-13T13:00:47.762Z,96995.53
2019-04-13T13:05:56.770Z,96984.30
2019-04-13T13:11:13.197Z,96980.84
2019-04-13T13:16:15.847Z,96982.74
2019-04-13T13:21:14.132Z,96984.91
2019-04-13T13:26:25.197Z,96982.52
2019-04-13T13:31:20.907Z,96965.06
2019-04-13T13:36:20.544Z,96975.59
2019-04-13T13:41:18.572Z,96969.97
2019-04-13T13:46:16.975Z,96965.09
2019-04-13T13:51:37.059Z,96967.83
2019-04-13T13:56:45.787Z,96966.55
2019-04-13T14:02:06.406Z,96966.41
2019-04-13T14:07:05.834Z,96963.18
2019-04-13T14:12:25.016Z,96953.14
2019-04-13T14:17:22.611Z,96963.69
2019-04-13T14:22:18.418Z,96956.75
2019-04-13T14:27:14.406Z,96951.02
2019-04-13T14:32:24.198Z,96954.02
2019-04-13T14:37:39.698Z,96951.39
2019-04-13T14:42:38.233Z,96971.39
2019-04-13T14:47:35.817Z,96968.81
2019-04-13T15:20:01.554Z,96977.50
2019-04-13T15:31:57.820Z,96980.18
2019-04-13T15:50:57.608Z,96995.53
2019-04-13T16:10:05.971Z,97016.98
2019-04-13T16:47:56.560Z,97028.47
2019-04-13T16:54:14.751Z,97026.14
2019-04-13T17:07:55.130Z,97038.38
2019-04-13T17:20:05.534Z,97054.91
2019-04-13T17:25:46.059Z,97056.28
2019-04-13T17:38:15.834Z,97061.72
2019-04-13T17:49:57.659Z,97064.00
2019-04-13T18:02:46.140Z,97070.03
2019-04-13T18:08:58.617Z,97071.55
2019-04-13T18:14:19.488Z,97072.66
2019-04-13T18:19:25.637Z,97083.00
2019-04-13T18:24:22.053Z,97091.37
2019-04-13T18:29:42.729Z,97100.39
2019-04-13T18:35:28.428Z,97106.91
2019-04-13T18:41:41.582Z,97112.33
2019-04-13T18:46:44.983Z,97114.09
2019-04-13T18:51:41.986Z,97127.91
2019-04-13T18:56:38.082Z,97137.67
2019-04-13T19:02:12.434Z,97138.67
2019-04-13T19:43:54.069Z,97158.63
2019-04-13T19:48:50.011Z,97153.77
2019-04-13T19:54:40.458Z,97156.45
2019-04-13T20:17:54.988Z,97141.84
2019-04-13T20:35:14.996Z,97145.38
2019-04-13T20:46:38.449Z,97144.06
2019-04-13T20:52:16.035Z,97135.31
2019-04-13T21:04:04.501Z,97143.91
2019-04-13T21:09:59.141Z,97146.77
2019-04-13T21:14:49.375Z,97136.22
